American Falls, Idaho
Current Conditions -  °F | °C
As of 5:53 PM on Wednesday 22 Oct 2014 (Local Time) from KPIH Reporting Station
Clear Clear  
Wind Chill: 14°   Ceiling: Unl
Heat Index: 14°   Visibility: 10mi
Dew Point: -3°   Wind: 0mph
Humidity: 32%   Direction: NA
Pressure: 30.14"   Gusts: NA
Location:  42.79°N, 112.85°W
Report Text: KPIH 222353Z 00000KT 10SM CLR 14/M03 A3014 RMK AO2 SLP205 T01391028 10161 20117 58007
Loading
Personal Weather Stations






























Interactive Weather Map
Tropical Storm Tracking
New forecast layout! Learn more

10-Day Weather Forecast

Advertisements
Track Severe Weather on mobile